Time;durP1;ratioP1;P1;durP2;ratioP2;P2;SDS_P1;SDS_P2;PMS_P1;PMS_P2;Temp;Humidity;BMP_temperature;BMP_pressure;BME280_temperature;BME280_humidity;BME280_pressure;Samples;Min_cycle;Max_cycle;Signal;HPM_P1;HPM_P2
2023/06/20 00:00:44;;;;;;;4.90;4.70;;;;;;;22.02;67.86;100375.50;5032966;28;20205;-80
2023/06/20 00:03:10;;;;;;;5.03;4.63;;;;;;;21.98;67.89;100377.53;5055647;28;20229;-79
2023/06/20 00:05:37;;;;;;;5.13;4.83;;;;;;;21.96;67.95;100386.56;5055616;28;20209;-80
2023/06/20 00:08:03;;;;;;;5.07;4.83;;;;;;;21.94;68.12;100386.69;5054908;28;20198;-79
2023/06/20 00:10:29;;;;;;;5.20;4.90;;;;;;;21.91;67.73;100397.50;5051123;28;20236;-80
2023/06/20 00:12:58;;;;;;;4.83;4.57;;;;;;;21.88;68.16;100394.19;5059207;23;20253;-79
2023/06/20 00:15:26;;;;;;;5.73;5.30;;;;;;;21.86;67.97;100401.41;5041786;28;20214;-79
2023/06/20 00:17:52;;;;;;;5.97;5.50;;;;;;;21.86;68.33;100386.31;5046832;28;20205;-81
2023/06/20 00:20:19;;;;;;;6.13;5.57;;;;;;;21.84;68.15;100392.69;5053977;28;20210;-81
2023/06/20 00:22:45;;;;;;;5.97;5.53;;;;;;;21.84;68.04;100398.84;5037478;28;20221;-80
2023/06/20 00:25:12;;;;;;;6.30;5.90;;;;;;;21.77;68.29;100393.09;5054165;28;20205;-81
2023/06/20 00:27:38;;;;;;;7.07;6.57;;;;;;;21.75;68.43;100391.50;5054090;28;20201;-81
2023/06/20 00:30:09;;;;;;;6.97;6.37;;;;;;;21.68;68.88;100379.59;5052966;28;20656;-81
2023/06/20 00:32:35;;;;;;;6.13;5.73;;;;;;;21.70;68.78;100378.50;5049626;28;20735;-81
2023/06/20 00:35:01;;;;;;;6.00;5.63;;;;;;;21.68;68.97;100371.63;5047258;28;20201;-79
2023/06/20 00:37:28;;;;;;;6.40;6.00;;;;;;;21.68;69.34;100383.09;5052646;28;20605;-80
2023/06/20 00:39:54;;;;;;;6.20;5.63;;;;;;;21.61;69.27;100372.03;5053598;28;20255;-81
2023/06/20 00:42:23;;;;;;;6.47;6.07;;;;;;;21.58;69.53;100369.56;5053552;28;20271;-78
2023/06/20 00:44:49;;;;;;;6.00;5.60;;;;;;;21.59;69.55;100373.94;5043509;28;20619;-81
2023/06/20 00:47:17;;;;;;;5.40;5.13;;;;;;;21.57;69.80;100373.19;5040978;28;20671;-79
2023/06/20 00:49:45;;;;;;;6.00;5.67;;;;;;;21.54;69.44;100368.06;5053511;28;20224;-80
2023/06/20 00:52:14;;;;;;;6.40;6.00;;;;;;;21.41;69.67;100372.47;5053497;28;20227;-80
2023/06/20 00:54:43;;;;;;;6.27;5.87;;;;;;;21.46;69.57;100366.88;5052890;28;20229;-81
2023/06/20 00:57:10;;;;;;;5.90;5.50;;;;;;;21.45;69.74;100363.38;5053442;28;20227;-80
2023/06/20 00:59:37;;;;;;;5.50;5.20;;;;;;;21.42;70.01;100360.88;5052931;28;20201;-80
2023/06/20 01:02:04;;;;;;;5.37;5.10;;;;;;;21.32;70.73;100349.16;5053087;28;20218;-79
2023/06/20 01:04:32;;;;;;;6.00;5.60;;;;;;;21.29;70.95;100325.44;5053372;28;20205;-80
2023/06/20 01:07:04;;;;;;;6.30;5.90;;;;;;;21.30;70.98;100324.50;5053301;28;20202;-80
2023/06/20 01:09:38;;;;;;;6.00;5.60;;;;;;;21.32;70.98;100319.94;5052975;28;20201;-80
2023/06/20 01:12:13;;;;;;;6.93;6.43;;;;;;;21.26;71.26;100326.50;5053166;28;20257;-80
2023/06/20 01:14:48;;;;;;;5.83;5.53;;;;;;;21.26;71.84;100317.69;5038879;28;20225;-80
2023/06/20 01:17:20;;;;;;;5.93;5.63;;;;;;;21.25;71.96;100306.22;5053701;28;20196;-80
2023/06/20 01:20:12;;;;;;;5.30;5.00;;;;;;;21.27;71.93;100306.97;5039312;28;20198;-80
2023/06/20 01:22:49;;;;;;;6.17;5.67;;;;;;;21.23;72.40;100287.75;5053279;28;20229;-81
2023/06/20 01:25:24;;;;;;;6.20;5.83;;;;;;;21.22;73.08;100282.53;5056279;28;20264;-81
2023/06/20 01:27:57;;;;;;;6.10;5.73;;;;;;;21.16;73.72;100256.38;5056192;28;20558;-80
2023/06/20 01:30:30;;;;;;;6.30;6.00;;;;;;;21.12;74.22;100253.06;5053479;28;20754;-82
2023/06/20 01:33:03;;;;;;;5.20;4.80;;;;;;;21.17;73.82;100244.84;5053357;28;20229;-81
2023/06/20 01:35:34;;;;;;;5.63;5.33;;;;;;;21.19;73.88;100249.06;5053336;28;20205;-81
2023/06/20 01:38:07;;;;;;;5.60;5.30;;;;;;;21.23;73.15;100253.22;5053025;28;20220;-81
2023/06/20 01:40:36;;;;;;;6.00;5.60;;;;;;;21.22;73.55;100250.66;5053590;28;20259;-82
2023/06/20 01:43:03;;;;;;;6.40;5.90;;;;;;;21.17;74.64;100247.50;5053662;28;20711;-80
2023/06/20 01:45:33;;;;;;;5.70;5.33;;;;;;;21.14;74.84;100235.25;5055037;28;20618;-81
2023/06/20 01:48:03;;;;;;;6.47;6.07;;;;;;;21.13;75.08;100224.72;5057263;28;20197;-81
2023/06/20 01:50:32;;;;;;;5.87;5.57;;;;;;;21.16;75.00;100232.50;5057940;28;20209;-81
2023/06/20 01:53:02;;;;;;;6.87;6.43;;;;;;;21.17;75.22;100223.59;5056687;28;20221;-80
2023/06/20 01:55:29;;;;;;;6.50;6.10;;;;;;;21.13;74.47;100238.00;5057695;28;20212;-81
2023/06/20 01:57:58;;;;;;;7.37;6.97;;;;;;;21.14;74.06;100255.63;5057406;28;20252;-80
2023/06/20 02:00:26;;;;;;;7.33;6.93;;;;;;;21.14;74.43;100263.59;5057387;28;20785;-81
2023/06/20 02:02:54;;;;;;;7.70;7.30;;;;;;;21.13;74.39;100262.75;5057646;28;20260;-82
2023/06/20 02:05:23;;;;;;;7.37;6.97;;;;;;;21.09;74.11;100266.56;5057617;28;20232;-81
2023/06/20 02:07:51;;;;;;;8.00;7.50;;;;;;;21.02;74.81;100255.47;5040442;28;20251;-81
2023/06/20 02:10:21;;;;;;;7.30;6.87;;;;;;;21.06;74.62;100244.69;5057315;28;20209;-81
2023/06/20 02:12:49;;;;;;;8.13;7.50;;;;;;;20.95;75.19;100232.09;5055970;28;20230;-81
2023/06/20 02:15:17;;;;;;;7.20;6.80;;;;;;;20.91;75.63;100226.16;5052924;28;20217;-81
2023/06/20 02:17:45;;;;;;;7.20;6.70;;;;;;;20.90;76.17;100215.66;5057347;28;20259;-81
2023/06/20 02:20:13;;;;;;;7.67;7.13;;;;;;;20.87;76.26;100218.50;5057052;28;20232;-81
2023/06/20 02:22:43;;;;;;;7.87;7.37;;;;;;;20.81;77.22;100191.44;5055861;28;20275;-80
2023/06/20 02:25:15;;;;;;;7.50;7.07;;;;;;;20.83;77.26;100178.03;5057249;28;20202;-81
2023/06/20 02:27:43;;;;;;;7.97;7.47;;;;;;;20.83;77.15;100176.25;5057719;28;20259;-81
2023/06/20 02:30:13;;;;;;;7.93;7.43;;;;;;;20.80;77.07;100183.56;5057167;28;20252;-80
2023/06/20 02:32:42;;;;;;;7.23;6.83;;;;;;;20.80;77.33;100176.44;5057315;28;20225;-81
2023/06/20 02:35:11;;;;;;;8.23;7.53;;;;;;;20.82;76.40;100200.22;5057237;28;20225;-81
2023/06/20 02:37:39;;;;;;;8.37;7.87;;;;;;;20.80;76.83;100196.81;5056385;28;20633;-81
2023/06/20 02:40:09;;;;;;;7.73;7.23;;;;;;;20.79;77.33;100184.50;5056869;28;20255;-81
2023/06/20 02:42:35;;;;;;;8.00;7.50;;;;;;;20.78;77.26;100188.13;5057706;28;20229;-81
2023/06/20 02:45:03;;;;;;;8.80;8.00;;;;;;;20.74;77.67;100179.50;5050784;28;20194;-81
2023/06/20 02:47:40;;;;;;;7.97;7.47;;;;;;;20.71;77.73;100178.84;5057378;28;20263;-81
2023/06/20 02:50:15;;;;;;;8.23;7.63;;;;;;;20.74;77.86;100176.00;5057683;28;20572;-80
2023/06/20 02:52:48;;;;;;;7.27;6.77;;;;;;;20.75;77.87;100177.69;5055566;28;20229;-81
2023/06/20 02:55:22;;;;;;;7.97;7.37;;;;;;;20.72;77.11;100197.31;5056976;28;20221;-81
2023/06/20 02:57:54;;;;;;;9.43;8.63;;;;;;;20.74;77.06;100197.22;5057223;28;20202;-81
2023/06/20 03:00:23;;;;;;;10.13;9.50;;;;;;;20.70;77.10;100209.84;5057798;28;20257;-81
2023/06/20 03:02:52;;;;;;;10.60;9.70;;;;;;;20.61;78.28;100189.19;5054888;28;20229;-80
2023/06/20 03:05:20;;;;;;;10.00;9.13;;;;;;;20.63;77.67;100197.91;5054933;28;20615;-80
2023/06/20 03:07:48;;;;;;;10.90;9.80;;;;;;;20.59;78.44;100181.38;5054655;28;20214;-80
2023/06/20 03:10:15;;;;;;;10.07;9.43;;;;;;;20.63;77.92;100192.59;5055051;28;20198;-79
2023/06/20 03:12:42;;;;;;;10.57;9.87;;;;;;;20.62;78.66;100186.47;5054755;28;20731;-80
2023/06/20 03:15:09;;;;;;;10.53;9.83;;;;;;;20.62;78.30;100182.97;5039884;28;20645;-80
2023/06/20 03:17:37;;;;;;;9.40;8.70;;;;;;;20.63;78.47;100180.22;5054547;28;20208;-78
2023/06/20 03:20:06;;;;;;;9.43;8.83;;;;;;;20.62;78.56;100189.13;5054840;28;20201;-79
2023/06/20 03:22:32;;;;;;;10.93;10.13;;;;;;;20.62;78.92;100189.13;5053899;28;20305;-79
2023/06/20 03:24:58;;;;;;;9.57;9.03;;;;;;;20.62;78.25;100188.28;5054840;28;20193;-78
2023/06/20 03:27:25;;;;;;;11.80;11.10;;;;;;;20.56;78.73;100186.81;5055103;28;20208;-78
2023/06/20 03:29:51;;;;;;;11.30;10.50;;;;;;;20.54;79.11;100188.72;5054142;28;20206;-79
2023/06/20 03:32:17;;;;;;;10.83;10.13;;;;;;;20.52;79.25;100182.66;5046275;28;20248;-79
2023/06/20 03:34:45;;;;;;;9.80;9.20;;;;;;;20.57;78.51;100183.25;5054604;28;20222;-80
2023/06/20 03:37:12;;;;;;;9.83;9.07;;;;;;;20.62;78.28;100202.38;5054376;28;20209;-78
2023/06/20 03:39:38;;;;;;;10.27;9.57;;;;;;;20.65;78.68;100203.13;5053792;28;20201;-77
2023/06/20 03:42:05;;;;;;;10.63;9.80;;;;;;;20.65;78.50;100203.13;5054491;28;20221;-80
2023/06/20 03:44:32;;;;;;;10.97;10.27;;;;;;;20.67;78.18;100217.97;5047276;28;20271;-78
2023/06/20 03:46:58;;;;;;;11.10;10.40;;;;;;;20.68;78.42;100219.69;5054379;28;20202;-79
2023/06/20 03:49:24;;;;;;;11.30;10.40;;;;;;;20.70;77.68;100227.56;5054630;28;20252;-80
2023/06/20 03:51:52;;;;;;;10.87;10.23;;;;;;;20.72;78.14;100236.28;5053997;28;20201;-80
2023/06/20 03:54:21;;;;;;;12.00;11.10;;;;;;;20.74;77.93;100239.66;5053787;28;20255;-78
2023/06/20 03:56:47;;;;;;;10.43;9.83;;;;;;;20.74;77.99;100237.88;5054150;28;20201;-79
2023/06/20 03:59:14;;;;;;;10.53;9.83;;;;;;;20.76;77.92;100237.78;5053978;28;20263;-81
2023/06/20 04:01:40;;;;;;;10.47;9.83;;;;;;;20.78;77.22;100249.13;5054221;28;20207;-81
2023/06/20 04:04:06;;;;;;;11.43;10.53;;;;;;;20.78;77.31;100255.28;5054010;28;20270;-80
2023/06/20 04:06:33;;;;;;;10.13;9.47;;;;;;;20.80;77.12;100249.88;5054128;28;20244;-81
2023/06/20 04:09:00;;;;;;;10.50;9.50;;;;;;;20.82;77.19;100264.75;5053422;28;20205;-81
2023/06/20 04:11:27;;;;;;;11.07;10.27;;;;;;;20.84;77.19;100283.22;5054341;28;20259;-80
2023/06/20 04:13:53;;;;;;;10.30;9.60;;;;;;;20.85;77.00;100273.47;5046918;28;20233;-80
2023/06/20 04:16:20;;;;;;;10.20;9.60;;;;;;;20.84;77.00;100262.00;5053391;28;20679;-81
2023/06/20 04:18:46;;;;;;;10.53;9.73;;;;;;;20.84;77.15;100275.25;5054344;28;20205;-80
2023/06/20 04:21:12;;;;;;;10.70;10.00;;;;;;;20.83;77.10;100265.59;5053971;28;20206;-80
2023/06/20 04:23:39;;;;;;;11.13;10.33;;;;;;;20.82;77.39;100266.56;5045242;28;20282;-79
2023/06/20 04:26:07;;;;;;;10.73;9.93;;;;;;;20.82;77.70;100264.75;5053903;28;20205;-80
2023/06/20 04:28:33;;;;;;;10.83;10.23;;;;;;;20.82;77.82;100261.25;5053104;28;20209;-81
2023/06/20 04:31:00;;;;;;;11.30;10.23;;;;;;;20.83;78.20;100252.31;5053656;28;20247;-80
2023/06/20 04:33:26;;;;;;;10.67;9.80;;;;;;;20.82;78.17;100250.63;5052804;28;20221;-81
2023/06/20 04:35:54;;;;;;;11.00;10.13;;;;;;;20.81;78.21;100240.97;5052839;28;20225;-81
2023/06/20 04:38:21;;;;;;;11.10;10.30;;;;;;;20.81;78.49;100241.84;5052753;28;20255;-81
2023/06/20 04:40:47;;;;;;;10.07;9.27;;;;;;;20.82;78.35;100232.91;5044567;28;20228;-78
2023/06/20 04:43:15;;;;;;;10.23;9.63;;;;;;;20.82;78.61;100229.41;5048382;28;20217;-79
2023/06/20 04:45:41;;;;;;;10.80;10.10;;;;;;;20.82;78.46;100230.25;5049549;28;20201;-79
2023/06/20 04:48:08;;;;;;;10.43;9.70;;;;;;;20.81;78.68;100233.88;5046166;28;20201;-80
2023/06/20 04:50:34;;;;;;;10.23;9.53;;;;;;;20.81;78.85;100235.66;5052989;28;20209;-80
2023/06/20 04:53:03;;;;;;;10.67;9.97;;;;;;;20.81;78.88;100240.97;5052023;28;20370;-79
2023/06/20 04:55:29;;;;;;;10.70;9.97;;;;;;;20.79;79.21;100233.13;5052718;28;20237;-80
2023/06/20 04:57:56;;;;;;;10.23;9.63;;;;;;;20.82;79.78;100229.41;5052729;28;20202;-81
2023/06/20 05:00:26;;;;;;;11.57;10.33;;;;;;;20.82;79.66;100226.75;5053077;28;20216;-81
2023/06/20 05:02:53;;;;;;;9.93;9.23;;;;;;;20.83;79.57;100234.63;5052370;28;20237;-79
2023/06/20 05:05:20;;;;;;;10.90;10.10;;;;;;;20.83;79.95;100231.09;5052803;28;20256;-80
2023/06/20 05:07:47;;;;;;;11.40;10.50;;;;;;;20.84;80.24;100227.50;5049625;28;20232;-79
2023/06/20 05:10:13;;;;;;;11.10;10.23;;;;;;;20.85;80.36;100226.53;5034933;28;20522;-78
2023/06/20 05:12:39;;;;;;;11.53;10.40;;;;;;;20.84;80.51;100224.84;5040910;28;20234;-79
2023/06/20 05:15:07;;;;;;;11.37;10.50;;;;;;;20.82;80.59;100222.28;5045685;28;20251;-80
2023/06/20 05:17:34;;;;;;;11.97;11.07;;;;;;;20.82;80.82;100221.44;5043618;28;20558;-80
2023/06/20 05:20:05;;;;;;;11.30;10.40;;;;;;;20.79;81.31;100217.22;5052163;28;20216;-81
2023/06/20 05:22:32;;;;;;;10.30;9.70;;;;;;;20.80;81.49;100207.44;5052381;28;20225;-77
2023/06/20 05:24:58;;;;;;;10.93;10.27;;;;;;;20.79;81.67;100208.38;5053405;28;20197;-80
2023/06/20 05:27:24;;;;;;;11.67;10.87;;;;;;;20.79;81.83;100214.56;5053739;28;20209;-81
2023/06/20 05:29:51;;;;;;;11.57;10.77;;;;;;;20.79;82.23;100206.59;5053100;28;20259;-80
2023/06/20 05:32:17;;;;;;;11.40;10.43;;;;;;;20.76;82.52;100211.25;5052858;28;20222;-81
2023/06/20 05:34:45;;;;;;;11.70;10.90;;;;;;;20.75;82.94;100225.44;5052912;28;20225;-81
2023/06/20 05:37:12;;;;;;;10.40;9.70;;;;;;;20.76;83.47;100222.69;5053561;28;20236;-80
2023/06/20 05:39:38;;;;;;;12.07;11.10;;;;;;;20.77;83.70;100224.41;5052990;28;20262;-81
2023/06/20 05:42:05;;;;;;;11.43;10.27;;;;;;;20.82;83.67;100237.38;5046947;28;20225;-80
2023/06/20 05:44:32;;;;;;;11.40;10.57;;;;;;;20.77;84.01;100226.19;5052882;28;20209;-81
2023/06/20 05:46:58;;;;;;;12.30;11.17;;;;;;;20.82;84.72;100216.16;5053613;28;20198;-81
2023/06/20 05:49:24;;;;;;;11.93;11.13;;;;;;;20.87;83.80;100229.09;5053852;28;20205;-81
2023/06/20 05:51:54;;;;;;;12.27;11.30;;;;;;;20.86;85.01;100220.31;5053881;28;20274;-81
2023/06/20 05:54:22;;;;;;;11.93;11.03;;;;;;;20.87;85.69;100191.94;5052970;28;20209;-82
2023/06/20 05:56:49;;;;;;;12.10;11.00;;;;;;;20.90;86.00;100199.72;5055832;28;20216;-82
2023/06/20 05:59:15;;;;;;;11.30;10.47;;;;;;;20.95;86.47;100184.34;5057875;28;20199;-81
2023/06/20 06:01:42;;;;;;;11.47;10.67;;;;;;;20.96;86.39;100188.69;5058719;28;20205;-83
2023/06/20 06:04:08;;;;;;;11.33;10.53;;;;;;;21.00;86.37;100191.03;5053126;28;20206;-79
2023/06/20 06:06:34;;;;;;;11.53;10.70;;;;;;;21.00;85.71;100192.84;5042384;28;20205;-79
2023/06/20 06:09:03;;;;;;;10.97;10.00;;;;;;;21.01;85.74;100207.84;5053364;28;20256;-81
2023/06/20 06:11:29;;;;;;;11.03;10.27;;;;;;;21.00;85.21;100219.38;5046913;28;20707;-79
2023/06/20 06:13:56;;;;;;;10.73;10.03;;;;;;;21.01;85.39;100224.59;5035915;28;20652;-80
2023/06/20 06:16:22;;;;;;;11.07;10.17;;;;;;;21.08;84.68;100232.16;5053721;28;20221;-79
2023/06/20 06:18:48;;;;;;;10.63;9.83;;;;;;;21.08;84.68;100248.94;5053067;28;20644;-79
2023/06/20 06:21:15;;;;;;;11.20;10.03;;;;;;;21.12;84.18;100258.38;5056550;23;20780;-74
2023/06/20 06:23:41;;;;;;;11.27;10.40;;;;;;;21.11;84.08;100262.00;5030143;28;20210;-74
2023/06/20 06:26:09;;;;;;;9.80;9.20;;;;;;;21.12;84.18;100271.66;5030734;28;20664;-74
2023/06/20 06:28:35;;;;;;;10.03;9.43;;;;;;;21.15;84.35;100266.16;5030971;28;20317;-74
2023/06/20 06:31:09;;;;;;;10.43;9.73;;;;;;;21.16;84.94;100259.03;5014398;28;20261;-74
2023/06/20 06:33:35;;;;;;;9.23;8.67;;;;;;;21.19;86.19;100240.28;5014601;28;20207;-74
2023/06/20 06:36:02;;;;;;;9.97;9.17;;;;;;;21.20;86.68;100228.69;5014121;28;20710;-74
2023/06/20 06:38:28;;;;;;;10.07;9.43;;;;;;;21.21;87.29;100217.97;5014026;28;20714;-74
2023/06/20 06:40:55;;;;;;;9.40;8.80;;;;;;;21.26;87.38;100199.06;5023945;28;20199;-74
2023/06/20 06:43:23;;;;;;;8.37;7.67;;;;;;;21.31;87.63;100196.13;5033932;28;20221;-74
2023/06/20 06:45:49;;;;;;;9.10;8.47;;;;;;;21.29;87.60;100196.22;5034168;28;20292;-73
2023/06/20 06:48:16;;;;;;;9.20;8.70;;;;;;;21.29;88.88;100185.59;5034329;28;20202;-73
2023/06/20 06:50:43;;;;;;;9.23;8.53;;;;;;;21.30;88.53;100168.69;5033978;28;20203;-73
2023/06/20 06:53:10;;;;;;;8.90;8.30;;;;;;;21.34;89.47;100162.22;5029401;28;20214;-73
2023/06/20 06:55:36;;;;;;;9.03;8.43;;;;;;;21.35;90.02;100150.66;5022710;28;20556;-73
2023/06/20 06:58:03;;;;;;;8.30;7.67;;;;;;;21.39;89.65;100149.50;5018132;28;20289;-73
2023/06/20 07:00:31;;;;;;;9.33;8.63;;;;;;;21.40;89.40;100167.09;5033684;28;20222;-73
2023/06/20 07:02:58;;;;;;;8.83;8.33;;;;;;;21.42;89.72;100161.69;5033613;28;20202;-73
2023/06/20 07:05:24;;;;;;;9.40;8.90;;;;;;;21.44;89.68;100174.91;5033805;28;20203;-73
2023/06/20 07:07:50;;;;;;;8.97;8.37;;;;;;;21.51;90.22;100154.94;5032795;28;20210;-72
2023/06/20 07:10:17;;;;;;;9.27;8.77;;;;;;;21.50;89.62;100166.53;5033416;28;20226;-73
2023/06/20 07:12:43;;;;;;;9.23;8.63;;;;;;;21.52;89.48;100176.06;5031591;28;20206;-73
2023/06/20 07:15:11;;;;;;;8.13;7.73;;;;;;;21.56;89.07;100188.19;5013415;28;20782;-73
2023/06/20 07:17:38;;;;;;;9.23;8.63;;;;;;;21.61;89.04;100193.19;5022332;28;20701;-73
2023/06/20 07:20:08;;;;;;;9.70;9.10;;;;;;;21.63;89.77;100193.09;5025341;28;20218;-73
2023/06/20 07:22:34;;;;;;;8.83;8.23;;;;;;;21.68;89.85;100175.84;5032792;28;20224;-73
2023/06/20 07:25:00;;;;;;;9.23;8.63;;;;;;;21.73;90.26;100173.75;5033286;28;20206;-75
2023/06/20 07:27:27;;;;;;;8.50;7.90;;;;;;;21.77;90.24;100171.72;5031509;28;20206;-74
2023/06/20 07:29:53;;;;;;;8.93;8.23;;;;;;;21.83;90.38;100171.28;5026965;28;20275;-74
2023/06/20 07:32:20;;;;;;;8.63;8.13;;;;;;;21.89;91.75;100151.41;5033025;28;20240;-74
2023/06/20 07:34:48;;;;;;;8.37;7.77;;;;;;;21.96;90.98;100153.53;5032203;28;20206;-74
2023/06/20 07:37:14;;;;;;;7.63;7.03;;;;;;;22.02;90.43;100160.19;5032790;28;20667;-74
2023/06/20 07:39:42;;;;;;;8.40;7.90;;;;;;;22.08;89.24;100177.50;5032011;28;20231;-74
2023/06/20 07:42:09;;;;;;;8.97;8.37;;;;;;;22.11;89.72;100186.13;5032921;28;20604;-74
2023/06/20 07:44:36;;;;;;;7.77;7.20;;;;;;;22.14;88.89;100196.56;5015558;28;20735;-74
2023/06/20 07:47:02;;;;;;;7.43;7.03;;;;;;;22.18;88.11;100202.50;5016403;28;20234;-78
2023/06/20 07:49:29;;;;;;;6.70;6.20;;;;;;;22.27;87.55;100216.97;5033063;28;20226;-73
2023/06/20 07:51:56;;;;;;;6.13;5.83;;;;;;;22.29;87.57;100225.69;5032710;28;20276;-74
2023/06/20 07:54:23;;;;;;;6.70;6.30;;;;;;;22.32;86.55;100231.66;5031730;28;20264;-73
2023/06/20 07:56:49;;;;;;;6.73;6.33;;;;;;;22.35;86.32;100244.72;5032710;28;20730;-73
2023/06/20 07:59:16;;;;;;;6.93;6.43;;;;;;;22.36;86.71;100248.25;5032238;28;20695;-73
2023/06/20 08:01:42;;;;;;;6.17;5.77;;;;;;;22.37;86.34;100245.44;5032463;28;20213;-73
2023/06/20 08:04:09;;;;;;;6.33;5.97;;;;;;;22.42;86.91;100234.50;5031472;28;20284;-73
2023/06/20 08:06:35;;;;;;;6.67;6.27;;;;;;;22.45;88.01;100220.13;5032230;28;20726;-73
2023/06/20 08:09:03;;;;;;;5.93;5.63;;;;;;;22.50;86.71;100237.47;5031913;28;20222;-73
2023/06/20 08:11:30;;;;;;;5.57;5.27;;;;;;;22.51;87.71;100225.00;5024811;28;20256;-73
2023/06/20 08:13:56;;;;;;;5.93;5.53;;;;;;;22.56;86.12;100247.66;5012484;28;20604;-73
2023/06/20 08:16:22;;;;;;;5.57;5.27;;;;;;;22.58;85.36;100261.69;5012656;28;20284;-73
2023/06/20 08:18:49;;;;;;;5.93;5.47;;;;;;;22.63;85.09;100265.84;5012686;28;20230;-73
2023/06/20 08:21:15;;;;;;;5.53;5.23;;;;;;;22.64;85.96;100262.22;5012362;28;20637;-73
2023/06/20 08:23:42;;;;;;;6.40;6.10;;;;;;;22.66;86.46;100245.19;5012157;28;20273;-73
2023/06/20 08:26:09;;;;;;;6.70;6.30;;;;;;;22.71;86.26;100236.84;5012794;28;20203;-73
2023/06/20 08:28:36;;;;;;;6.77;6.37;;;;;;;22.68;84.83;100258.38;5020924;28;20724;-73
2023/06/20 08:31:03;;;;;;;6.50;6.20;;;;;;;22.65;84.83;100271.88;5032153;28;20210;-73
2023/06/20 08:33:30;;;;;;;7.03;6.53;;;;;;;22.61;85.18;100268.59;5032287;28;20252;-73
2023/06/20 08:35:57;;;;;;;6.73;6.37;;;;;;;22.58;85.06;100269.69;5031778;28;20256;-73
2023/06/20 08:38:23;;;;;;;6.80;6.40;;;;;;;22.58;84.62;100277.66;5031752;28;20217;-73
2023/06/20 08:40:51;;;;;;;6.40;6.10;;;;;;;22.59;85.02;100262.53;5032071;28;20206;-73
2023/06/20 08:43:19;;;;;;;7.37;6.87;;;;;;;22.58;85.27;100260.84;5025498;28;20225;-73
2023/06/20 08:45:46;;;;;;;7.33;6.83;;;;;;;22.57;84.89;100272.44;5011989;28;20203;-73
2023/06/20 08:48:12;;;;;;;7.63;7.13;;;;;;;22.54;85.08;100268.19;5012064;28;20209;-73
2023/06/20 08:50:39;;;;;;;6.83;6.43;;;;;;;22.53;84.80;100271.81;5011518;28;20204;-73
2023/06/20 08:53:07;;;;;;;7.73;7.27;;;;;;;22.55;84.60;100282.34;5010936;28;20617;-73
2023/06/20 08:55:35;;;;;;;7.70;7.20;;;;;;;22.62;85.46;100264.16;5012015;28;20234;-73
2023/06/20 08:58:01;;;;;;;8.03;7.53;;;;;;;22.71;85.47;100261.66;5011989;28;20207;-73
2023/06/20 09:00:30;;;;;;;7.97;7.57;;;;;;;22.83;85.53;100259.91;5012067;28;20479;-73
2023/06/20 09:02:56;;;;;;;8.07;7.47;;;;;;;22.92;84.99;100277.03;5015004;28;20285;-73
2023/06/20 09:05:23;;;;;;;8.30;7.80;;;;;;;22.95;84.27;100280.31;5024812;28;20793;-73
2023/06/20 09:07:52;;;;;;;9.30;8.70;;;;;;;22.96;84.78;100284.66;5011672;28;20257;-73
2023/06/20 09:10:21;;;;;;;9.20;8.60;;;;;;;22.99;84.35;100289.78;5016325;28;20229;-73
2023/06/20 09:12:49;;;;;;;8.70;8.10;;;;;;;23.02;84.55;100293.19;5031236;28;20293;-73
2023/06/20 09:15:16;;;;;;;10.20;9.50;;;;;;;23.13;84.38;100295.91;5031102;28;20689;-73
2023/06/20 09:17:44;;;;;;;10.07;9.47;;;;;;;23.19;84.36;100284.81;5030963;28;20219;-73
2023/06/20 09:20:13;;;;;;;8.80;8.30;;;;;;;23.22;84.24;100295.25;5031568;28;20221;-73
2023/06/20 09:22:41;;;;;;;8.17;7.67;;;;;;;23.34;84.65;100275.66;5029290;28;20228;-73
2023/06/20 09:25:08;;;;;;;9.73;9.00;;;;;;;23.46;84.80;100276.56;5011619;28;20596;-73
2023/06/20 09:27:36;;;;;;;8.83;8.23;;;;;;;23.60;83.68;100286.19;5011615;28;20214;-74
2023/06/20 09:30:04;;;;;;;8.80;8.20;;;;;;;23.78;82.51;100306.16;5011776;28;20225;-73
2023/06/20 09:32:35;;;;;;;8.67;8.17;;;;;;;23.94;81.20;100335.16;5011359;28;20636;-73
2023/06/20 09:35:05;;;;;;;8.27;7.87;;;;;;;24.08;79.75;100370.53;5023534;28;20709;-73
2023/06/20 09:37:38;;;;;;;8.93;8.40;;;;;;;24.21;80.08;100375.81;5030730;28;20297;-73
2023/06/20 09:40:10;;;;;;;9.37;8.77;;;;;;;24.27;79.05;100400.19;5031090;28;20234;-73
2023/06/20 09:42:38;;;;;;;8.63;8.03;;;;;;;24.37;78.23;100419.00;5030625;28;20205;-74
2023/06/20 09:45:05;;;;;;;8.70;8.00;;;;;;;24.45;78.67;100432.59;5031114;28;20212;-72
2023/06/20 09:47:32;;;;;;;9.10;8.60;;;;;;;24.54;78.07;100436.41;5023360;28;20280;-72
2023/06/20 09:50:00;;;;;;;8.50;8.03;;;;;;;24.60;78.04;100438.59;5022778;28;20225;-72
2023/06/20 09:52:33;;;;;;;8.20;7.70;;;;;;;24.70;78.20;100444.91;5014777;28;20746;-72
2023/06/20 09:55:01;;;;;;;8.33;7.87;;;;;;;24.77;77.39;100453.28;5023069;28;20249;-72
2023/06/20 09:57:34;;;;;;;9.10;8.50;;;;;;;24.77;77.07;100462.13;5030987;28;20515;-71
2023/06/20 10:00:01;;;;;;;8.90;8.30;;;;;;;24.81;76.10;100452.06;5019049;28;20276;-72
2023/06/20 10:02:29;;;;;;;8.60;8.10;;;;;;;24.86;74.69;100481.09;5027424;28;20209;-72
2023/06/20 10:04:56;;;;;;;8.97;8.20;;;;;;;24.89;75.14;100491.53;5026486;28;20268;-72
2023/06/20 10:07:23;;;;;;;8.63;8.10;;;;;;;24.94;74.96;100476.00;5034217;28;20210;-72
2023/06/20 10:09:54;;;;;;;7.57;7.07;;;;;;;24.94;74.44;100470.66;5034226;28;20251;-72
2023/06/20 10:12:21;;;;;;;7.73;7.33;;;;;;;24.95;73.73;100483.91;5028180;28;20265;-72
2023/06/20 10:14:49;;;;;;;8.17;7.70;;;;;;;24.92;73.23;100481.47;5030865;28;20206;-73
2023/06/20 10:17:16;;;;;;;7.40;7.00;;;;;;;25.00;73.52;100478.19;5028354;28;20348;-73
2023/06/20 10:19:50;;;;;;;7.40;6.90;;;;;;;25.09;73.65;100480.09;5034893;28;20229;-73
2023/06/20 10:22:33;;;;;;;7.53;7.13;;;;;;;25.19;73.51;100466.88;5034074;28;20301;-73
2023/06/20 10:25:11;;;;;;;7.60;7.10;;;;;;;25.26;72.82;100485.97;5023173;28;20213;-75
2023/06/20 10:27:38;;;;;;;6.87;6.53;;;;;;;25.35;71.89;100487.91;5030470;28;20201;-74
2023/06/20 10:30:06;;;;;;;7.10;6.70;;;;;;;25.42;73.79;100474.91;5033564;28;20468;-74
2023/06/20 10:32:33;;;;;;;7.00;6.63;;;;;;;25.47;73.67;100454.00;5033946;28;20202;-74
2023/06/20 10:35:07;;;;;;;6.87;6.47;;;;;;;25.58;72.49;100469.16;5026592;28;20265;-74
2023/06/20 10:37:39;;;;;;;7.07;6.67;;;;;;;25.68;71.37;100499.53;5033807;28;20232;-73
2023/06/20 10:40:09;;;;;;;7.47;7.07;;;;;;;25.77;70.90;100521.00;5032419;28;20313;-74
2023/06/20 10:42:42;;;;;;;7.17;6.87;;;;;;;25.85;70.45;100531.09;5033207;28;20690;-74
2023/06/20 10:45:26;;;;;;;7.00;6.47;;;;;;;25.94;72.84;100508.09;5018814;28;20206;-75
2023/06/20 10:47:53;;;;;;;7.53;7.07;;;;;;;26.06;70.38;100509.75;5026022;28;20646;-73
2023/06/20 10:50:21;;;;;;;7.63;7.03;;;;;;;26.13;69.16;100551.09;5034266;28;20226;-73
2023/06/20 10:52:48;;;;;;;6.63;6.17;;;;;;;26.19;67.92;100581.00;5023234;28;20499;-75
2023/06/20 10:55:17;;;;;;;6.93;6.43;;;;;;;26.18;67.06;100614.06;5019942;28;20204;-72
2023/06/20 10:57:45;;;;;;;6.40;6.00;;;;;;;26.21;67.63;100609.34;5025574;28;20676;-72
2023/06/20 11:00:14;;;;;;;6.43;6.13;;;;;;;26.21;67.12;100620.03;5033914;28;20331;-73
2023/06/20 11:02:41;;;;;;;6.70;6.30;;;;;;;26.24;68.12;100603.72;5033564;28;20722;-73
2023/06/20 11:05:10;;;;;;;7.40;7.00;;;;;;;26.33;68.27;100589.56;5033971;28;20209;-73
2023/06/20 11:07:50;;;;;;;6.70;6.30;;;;;;;26.38;68.33;100578.47;5033210;28;20206;-72
2023/06/20 11:10:20;;;;;;;7.17;6.67;;;;;;;26.41;68.12;100572.03;5034042;28;20229;-73
2023/06/20 11:12:47;;;;;;;7.33;6.83;;;;;;;26.52;68.69;100555.91;5033467;28;20675;-73
2023/06/20 11:15:24;;;;;;;7.13;6.73;;;;;;;26.62;67.91;100550.66;5028052;28;20652;-73
2023/06/20 11:17:52;;;;;;;7.40;7.00;;;;;;;26.71;66.95;100560.59;5014882;28;20231;-72
2023/06/20 11:20:18;;;;;;;7.43;6.97;;;;;;;26.78;67.50;100550.19;5013321;28;20219;-73
2023/06/20 11:22:46;;;;;;;7.33;6.93;;;;;;;26.91;66.15;100572.28;5013214;28;20752;-73
2023/06/20 11:25:12;;;;;;;7.47;7.07;;;;;;;27.05;65.83;100597.88;5013888;28;20203;-73